KHON/HON METAR and TAF weather

Enter ICAO airport designator
Station Type Date Time Source
KHON METAR 2022/06/28 09:55 UTC NOAA

KHON 280955Z AUTO 00000KT 10SM CLR 16/11 A3000 RMK AO2 SLP152 T01610111 TSNO


Station Type Date Time Source
KHON Decoded METAR 2022/06/28 09:55 UTC NOAA

HURON REGIONAL AIRPORT, SD, United States (KHON) 44-23N 098-14W 390M
Jun 28, 2022 - 05:55 AM EDT / 2022.06.28 0955 UTC
Wind: Calm:0
Visibility: 10 mile(s):0
Sky conditions: clear
Temperature: 61.0 F (16.1 C)
Dew Point: 52.0 F (11.1 C)
Relative Humidity: 72%
Pressure (altimeter): 30 in. Hg (1015 hPa)
ob: KHON 280955Z AUTO 00000KT 10SM CLR 16/11 A3000 RMK AO2 SLP152 T01610111 TSNO
cycle: 10

Station Type Date Time Source
KHON TAF 2022/06/28 06:27 UTC NOAA

TAF KHON 280524Z 2806/2906 15010KT P6SM SCT090 WS020/20035KT
FM281000 21011KT P6SM FEW090
FM281200 31009KT P6SM FEW250
FM281600 36009KT P6SM FEW250
FM290100 05009KT P6SM SKC

Example: see airport list